Accueil
METAR-TAF:

METAR-TAF

Aéroports :

Morristown, Tennessee, États-Unis

latitude: 36-10-46N, longitude: 083-22-32W, altitude: 400 m

Observation

Le bulletin a été fait il y a 24 minutes, à 18:55 UTC
Vent 8 kt de sud/sud-ouest
Température 23°C
Humidité 69%
Pression 1009 hPa
Visibilité: 16.1 km
Nuages épars à une hauteur de 2600 ft
Nuages fragmentés à une hauteur de 3700 ft
Nuages fragmentés à une hauteur de 4600 ft

METAR: KMOR 081855Z AUTO 21008KT 10SM SCT026 BKN037 BKN046 23/17 A2980 RMK A01

Heure: 14:19 (19:19 UTC)


TAF: absent

Observations et prévisions météorologiques de plus de 4000 aéroports (messages METAR et TAF).

Les stations disponibles sont représentées par des disques jaunes et rouges sur la carte.

Passer la souris dessus pour voir le nom de la station.

Cliquer dessus pour voir les observations et prévisions météorologiques.

Pour changer de carte: cliquez sur les boutons verts avec une croix noire pour zoomer, sur le bouton vert avec un tiret pour effectuer un zoom arrière, ou sur les flèches vertes pour les cartes adjacentes.


METAR-TAF: